Time;durP1;ratioP1;P1;durP2;ratioP2;P2;SDS_P1;SDS_P2;PMS_P1;PMS_P2;Temp;Humidity;BMP_temperature;BMP_pressure;BME280_temperature;BME280_humidity;BME280_pressure;Samples;Min_cycle;Max_cycle;Signal;HPM_P1;HPM_P2
2022/01/25 00:32:23;;;;;;;213.47;84.80;;;0.10;99.90;;;;;;10490227;28;20046;-83
2022/01/25 00:37:24;;;;;;;213.60;88.93;;;0.10;99.90;;;;;;10490130;28;20377;-82
2022/01/25 00:42:24;;;;;;;217.03;88.83;;;0.10;99.90;;;;;;10490602;28;20039;-83
2022/01/25 00:47:26;;;;;;;243.10;88.17;;;0.20;99.90;;;;;;10489264;28;20559;-83
2022/01/25 00:57:39;;;;;;;223.07;80.30;;;0.20;99.90;;;;;;10490636;28;20063;-83
2022/01/25 01:02:40;;;;;;;208.33;78.83;;;0.20;99.90;;;;;;10471587;28;20119;-83
2022/01/25 01:07:42;;;;;;;188.10;72.73;;;0.20;99.90;;;;;;10495118;28;20500;-83
2022/01/25 01:44:09;;;;;;;210.57;80.28;;;0.20;99.90;;;;;;10396540;28;20047;-83
2022/01/25 01:49:11;;;;;;;208.03;87.47;;;0.30;99.90;;;;;;10496289;28;20020;-83
2022/01/25 01:54:14;;;;;;;196.37;79.23;;;0.30;99.90;;;;;;10478437;28;20549;-84
2022/01/25 01:59:16;;;;;;;194.37;77.67;;;0.30;99.90;;;;;;10494786;28;20017;-83
2022/01/25 02:04:18;;;;;;;188.70;73.13;;;0.30;99.90;;;;;;10483400;28;20391;-83
2022/01/25 02:09:19;;;;;;;171.90;71.93;;;0.20;99.90;;;;;;10477260;28;20021;-85
2022/01/25 02:14:19;;;;;;;172.17;74.80;;;0.20;99.90;;;;;;10494395;28;20048;-83
2022/01/25 02:24:39;;;;;;;165.40;69.67;;;0.20;99.90;;;;;;10495446;28;20044;-84
2022/01/25 02:29:40;;;;;;;162.50;68.90;;;0.20;99.90;;;;;;10493191;28;20469;-83
2022/01/25 02:34:41;;;;;;;164.33;70.07;;;0.20;99.90;;;;;;10494908;28;20037;-83
2022/01/25 02:39:43;;;;;;;187.10;77.70;;;0.20;99.90;;;;;;10489853;28;20127;-83
2022/01/25 02:44:44;;;;;;;162.83;70.53;;;0.20;99.90;;;;;;10494376;28;20082;-83
2022/01/25 02:49:45;;;;;;;169.77;72.30;;;0.20;99.90;;;;;;10476505;28;20029;-84
2022/01/25 02:54:46;;;;;;;167.37;68.13;;;0.10;99.90;;;;;;10493865;28;20044;-83
2022/01/25 02:59:46;;;;;;;166.53;69.50;;;0.10;99.90;;;;;;10494029;28;20036;-84
2022/01/25 03:04:47;;;;;;;163.23;66.83;;;0.10;99.90;;;;;;10493104;28;20039;-84
2022/01/25 03:09:48;;;;;;;169.07;72.03;;;0.20;99.90;;;;;;10483231;28;20400;-84
2022/01/25 03:15:11;;;;;;;168.80;70.93;;;0.10;99.90;;;;;;10474777;28;20052;-83
2022/01/25 03:20:18;;;;;;;159.63;67.77;;;0.20;99.90;;;;;;10492253;28;20032;-83
2022/01/25 03:25:19;;;;;;;172.50;70.20;;;0.20;99.90;;;;;;10472730;28;20515;-84
2022/01/25 03:30:19;;;;;;;172.07;73.30;;;0.20;99.90;;;;;;10492440;28;20028;-83
2022/01/25 03:35:20;;;;;;;177.53;77.47;;;0.20;99.90;;;;;;10492624;28;20118;-84
2022/01/25 03:40:21;;;;;;;157.27;69.77;;;0.20;99.90;;;;;;10491642;28;20052;-83
2022/01/25 03:45:28;;;;;;;173.70;71.90;;;0.20;99.90;;;;;;10491866;28;20032;-84
2022/01/25 03:50:29;;;;;;;178.60;73.97;;;0.20;99.90;;;;;;10491618;28;20024;-84
2022/01/25 03:55:30;;;;;;;176.23;72.67;;;0.20;99.90;;;;;;10473600;28;20039;-85
2022/01/25 04:00:31;;;;;;;184.83;75.40;;;0.20;99.90;;;;;;10482804;28;20059;-83
2022/01/25 04:05:46;;;;;;;168.10;70.77;;;0.30;99.90;;;;;;10470806;28;20032;-83
2022/01/25 04:10:48;;;;;;;149.60;67.47;;;0.30;99.90;;;;;;10492225;28;20446;-81
2022/01/25 04:15:50;;;;;;;166.80;68.07;;;0.30;99.90;;;;;;10488419;28;20052;-82
2022/01/25 04:21:00;;;;;;;150.43;63.13;;;0.30;99.90;;;;;;10492373;28;20525;-83
2022/01/25 04:26:01;;;;;;;195.33;82.60;;;0.30;99.90;;;;;;10490757;28;20107;-81
2022/01/25 04:31:01;;;;;;;182.07;76.20;;;0.30;99.90;;;;;;10470293;28;20119;-82
2022/01/25 04:52:07;;;;;;;149.30;61.03;;;0.30;99.90;;;;;;10490155;28;20036;-82
2022/01/25 04:57:30;;;;;;;165.47;68.97;;;0.30;99.90;;;;;;10477858;28;20656;-82
2022/01/25 05:02:47;;;;;;;146.43;64.23;;;0.30;99.90;;;;;;10471429;28;20033;-82
2022/01/25 05:07:59;;;;;;;157.63;65.43;;;0.30;99.90;;;;;;10476824;28;20070;-82
2022/01/25 05:23:16;;;;;;;163.10;64.57;;;0.30;99.90;;;;;;10489800;28;20275;-84
2022/01/25 05:28:17;;;;;;;150.57;62.77;;;0.30;99.90;;;;;;10467656;28;20025;-81
2022/01/25 05:33:17;;;;;;;146.90;63.07;;;0.30;99.90;;;;;;10471005;28;20044;-81
2022/01/25 05:38:18;;;;;;;162.63;67.03;;;0.30;99.90;;;;;;10487505;28;20024;-81
2022/01/25 05:44:02;;;;;;;165.57;68.77;;;0.30;99.90;;;;;;10490035;28;20146;-81
2022/01/25 05:48:40;;;;;;;163.83;70.03;;;0.30;99.90;;;;;;10487817;28;20166;-82
2022/01/25 05:53:42;;;;;;;167.87;69.57;;;0.40;99.90;;;;;;10494301;28;20051;-82
2022/01/25 05:58:43;;;;;;;166.60;75.57;;;0.40;99.90;;;;;;10496573;28;20035;-82
2022/01/25 06:03:45;;;;;;;177.60;72.13;;;0.30;99.90;;;;;;10496529;28;20044;-83
2022/01/25 06:08:45;;;;;;;190.13;77.20;;;0.40;99.90;;;;;;10496435;28;20028;-82
2022/01/25 06:13:46;;;;;;;188.23;77.17;;;0.40;99.90;;;;;;10495849;28;20044;-83
2022/01/25 06:18:47;;;;;;;182.87;73.30;;;0.40;99.90;;;;;;10495445;28;20446;-82
2022/01/25 06:23:48;;;;;;;176.37;74.93;;;0.40;99.90;;;;;;10495980;28;20066;-82
2022/01/25 06:28:48;;;;;;;172.17;68.60;;;0.40;99.90;;;;;;10495889;28;20107;-82
2022/01/25 06:33:49;;;;;;;190.87;78.40;;;0.50;99.90;;;;;;10495019;28;20079;-81
2022/01/25 06:38:50;;;;;;;241.07;87.77;;;0.40;99.90;;;;;;10494927;28;20020;-81
2022/01/25 06:43:50;;;;;;;232.40;86.87;;;0.40;99.90;;;;;;10495935;28;20036;-81
2022/01/25 06:48:51;;;;;;;237.23;85.80;;;0.50;99.90;;;;;;10494569;28;20066;-83
2022/01/25 06:53:51;;;;;;;248.10;97.70;;;0.50;99.90;;;;;;10476227;28;20037;-81
2022/01/25 06:58:52;;;;;;;230.70;88.27;;;0.50;99.90;;;;;;10494632;28;20059;-83
2022/01/25 07:03:53;;;;;;;232.97;92.03;;;0.50;99.90;;;;;;10474817;28;20028;-80
2022/01/25 07:08:54;;;;;;;240.03;89.87;;;0.60;99.90;;;;;;10493121;28;20028;-81
2022/01/25 07:13:54;;;;;;;194.07;78.57;;;0.60;99.90;;;;;;10493653;28;20032;-80
2022/01/25 07:18:55;;;;;;;219.20;83.83;;;0.60;99.90;;;;;;10493047;28;20071;-82
2022/01/25 07:23:56;;;;;;;180.70;73.97;;;0.70;99.90;;;;;;10493832;28;20100;-81
2022/01/25 07:28:56;;;;;;;263.87;94.80;;;0.80;99.90;;;;;;10493835;28;20028;-81
2022/01/25 07:33:57;;;;;;;212.13;84.47;;;0.80;99.90;;;;;;10491338;28;20045;-81
2022/01/25 07:38:57;;;;;;;246.43;92.60;;;0.80;99.90;;;;;;10492817;28;20111;-81
2022/01/25 07:43:59;;;;;;;203.73;79.83;;;0.80;99.90;;;;;;10487948;28;20035;-82
2022/01/25 07:49:00;;;;;;;212.40;83.43;;;0.90;99.90;;;;;;10487430;28;20017;-81
2022/01/25 07:54:00;;;;;;;296.73;122.23;;;0.90;99.90;;;;;;10492155;28;20036;-81
2022/01/25 07:59:01;;;;;;;237.50;93.10;;;1.00;99.90;;;;;;10480061;28;20044;-83
2022/01/25 08:04:02;;;;;;;202.70;85.07;;;1.10;99.90;;;;;;10462632;28;20035;-81
2022/01/25 08:09:05;;;;;;;188.13;73.20;;;1.10;99.90;;;;;;10450242;28;20024;-81
2022/01/25 08:14:13;;;;;;;186.77;73.20;;;1.20;99.90;;;;;;10449550;28;20091;-83
2022/01/25 08:19:15;;;;;;;305.17;123.10;;;1.20;99.90;;;;;;10449948;28;20025;-82
2022/01/25 08:24:20;;;;;;;195.60;81.73;;;1.20;99.90;;;;;;10450732;28;20032;-81
2022/01/25 08:29:21;;;;;;;219.07;96.07;;;1.40;99.90;;;;;;10449929;28;20029;-81
2022/01/25 08:34:22;;;;;;;256.50;117.07;;;1.40;99.90;;;;;;10449790;28;20036;-83
2022/01/25 08:39:25;;;;;;;263.97;116.13;;;1.50;99.90;;;;;;10474183;28;20052;-83
2022/01/25 08:44:26;;;;;;;247.27;107.53;;;1.50;99.90;;;;;;10476019;28;20031;-81
2022/01/25 08:49:27;;;;;;;199.00;89.47;;;1.60;99.90;;;;;;10490465;28;20099;-82
2022/01/25 08:54:28;;;;;;;192.63;82.80;;;1.60;99.90;;;;;;10490829;28;20036;-82
2022/01/25 08:59:29;;;;;;;161.00;73.63;;;1.60;99.90;;;;;;10490452;28;20035;-82
2022/01/25 09:04:30;;;;;;;199.37;81.27;;;1.70;99.90;;;;;;10490600;28;20016;-82
2022/01/25 09:09:30;;;;;;;176.43;69.13;;;1.80;99.90;;;;;;10467417;28;20028;-82
2022/01/25 09:14:32;;;;;;;170.27;67.07;;;1.90;99.90;;;;;;10490131;28;20466;-81
2022/01/25 09:19:33;;;;;;;149.73;62.30;;;2.00;99.90;;;;;;10490449;28;20035;-81
2022/01/25 09:24:34;;;;;;;137.73;58.30;;;2.00;99.90;;;;;;10490461;28;20059;-82
2022/01/25 09:29:35;;;;;;;176.73;77.77;;;2.10;99.90;;;;;;10478872;28;20036;-81
2022/01/25 09:34:36;;;;;;;227.03;95.60;;;2.10;99.90;;;;;;10475163;28;20127;-81
2022/01/25 09:39:36;;;;;;;239.17;94.50;;;2.20;99.90;;;;;;10456364;28;20036;-82
2022/01/25 09:44:40;;;;;;;194.60;80.87;;;2.40;99.90;;;;;;10462822;28;20033;-82
2022/01/25 09:49:40;;;;;;;182.57;73.27;;;2.60;99.90;;;;;;10462868;28;20028;-83
2022/01/25 09:54:41;;;;;;;180.93;73.23;;;2.70;99.90;;;;;;10462331;28;20040;-85
2022/01/25 09:59:42;;;;;;;196.60;80.67;;;2.90;99.90;;;;;;10455442;28;20039;-83
2022/01/25 10:04:49;;;;;;;195.07;79.63;;;3.10;99.90;;;;;;10453827;28;20039;-84
2022/01/25 10:16:32;;;;;;;177.70;70.87;;;3.00;99.90;;;;;;10455570;28;20436;-81
2022/01/25 10:22:12;;;;;;;191.27;75.30;;;3.00;99.90;;;;;;10452736;28;20043;-82
2022/01/25 10:34:08;;;;;;;;;;;;;;;;;;;;;
2022/01/25 13:06:28;;;;;;;139.27;64.23;;;3.00;99.90;;;;;;10129562;29;20033;-82
2022/01/25 13:23:26;;;;;;;156.27;71.87;;;3.00;99.90;;;;;;11235602;23;20089;-83
2022/01/25 13:28:38;;;;;;;136.90;76.10;;;2.90;99.90;;;;;;10293336;28;20110;-82
2022/01/25 13:45:46;;;;;;;61.47;28.27;;;2.70;99.90;;;;;;10206549;29;20114;-81
2022/01/25 14:08:17;;;;;;;92.93;43.53;;;2.60;99.90;;;;;;10255232;28;20038;-83
2022/01/25 14:24:05;;;;;;;112.50;49.47;;;2.50;99.90;;;;;;10264897;28;20387;-81
2022/01/25 14:29:17;;;;;;;79.03;36.37;;;2.40;99.90;;;;;;10291290;28;20058;-82
2022/01/25 14:34:19;;;;;;;94.17;45.37;;;2.40;99.90;;;;;;10290194;28;20038;-82
2022/01/25 14:39:19;;;;;;;93.00;45.90;;;2.40;99.90;;;;;;10290042;28;20405;-85
2022/01/25 14:44:24;;;;;;;73.50;33.23;;;2.30;99.90;;;;;;10273054;28;20031;-81
2022/01/25 14:49:31;;;;;;;54.73;26.13;;;2.30;99.90;;;;;;10273262;28;20030;-81
2022/01/25 14:54:34;;;;;;;63.20;27.17;;;2.10;99.90;;;;;;10290309;28;20074;-80
2022/01/25 14:59:47;;;;;;;65.33;26.50;;;2.10;99.90;;;;;;10271557;28;20530;-81
2022/01/25 15:04:50;;;;;;;77.77;32.00;;;2.00;99.90;;;;;;10289730;28;20441;-81
2022/01/25 15:10:01;;;;;;;90.67;38.30;;;1.90;99.90;;;;;;10289584;28;20031;-83
2022/01/25 15:20:08;;;;;;;122.20;54.10;;;1.80;99.90;;;;;;10283580;28;20036;-81
2022/01/25 15:25:10;;;;;;;125.05;52.65;;;1.80;99.90;;;;;;10279986;28;20039;-82
2022/01/25 15:30:12;;;;;;;117.00;56.90;;;1.80;99.90;;;;;;10289119;28;20065;-80
2022/01/25 15:35:15;;;;;;;140.47;68.80;;;1.80;99.90;;;;;;10270681;28;20045;-83
2022/01/25 15:40:29;;;;;;;140.43;68.47;;;1.80;99.90;;;;;;10270187;28;20509;-80
2022/01/25 15:51:28;;;;;;;143.97;68.70;;;1.70;99.90;;;;;;10204475;28;20035;-81
2022/01/25 15:56:30;;;;;;;158.73;77.90;;;1.70;99.90;;;;;;10269543;28;20066;-81
2022/01/25 16:01:30;;;;;;;147.93;68.40;;;1.60;99.90;;;;;;10270066;28;20027;-83
2022/01/25 16:06:32;;;;;;;180.77;90.00;;;1.60;99.90;;;;;;10291878;28;20386;-80
2022/01/25 16:11:32;;;;;;;161.33;74.07;;;1.60;99.90;;;;;;10295470;28;20054;-81
2022/01/25 16:16:34;;;;;;;169.13;78.10;;;1.60;99.90;;;;;;10286745;28;20047;-80
2022/01/25 16:21:35;;;;;;;182.60;84.33;;;1.60;99.90;;;;;;10286022;28;20112;-80
2022/01/25 16:26:37;;;;;;;212.13;100.13;;;1.60;99.90;;;;;;10269252;28;20475;-80
2022/01/25 16:31:38;;;;;;;209.33;98.77;;;1.60;99.90;;;;;;10281948;28;20037;-81
2022/01/25 16:36:39;;;;;;;205.73;92.27;;;1.60;99.90;;;;;;10267465;28;20190;-83
2022/01/25 16:41:45;;;;;;;193.83;92.33;;;1.60;99.90;;;;;;10286519;28;20118;-80
2022/01/25 16:46:46;;;;;;;227.60;108.73;;;1.60;99.90;;;;;;10285401;28;20035;-80
2022/01/25 16:51:47;;;;;;;185.30;89.47;;;1.70;99.90;;;;;;10296944;28;20037;-83
2022/01/25 16:56:48;;;;;;;158.53;74.77;;;1.70;99.90;;;;;;10292952;28;20126;-85
2022/01/25 17:07:54;;;;;;;165.83;76.47;;;1.70;99.90;;;;;;10271362;28;20112;-81
2022/01/25 17:12:56;;;;;;;211.40;100.47;;;1.70;99.90;;;;;;10256300;28;20077;-80
2022/01/25 17:17:56;;;;;;;149.37;71.10;;;1.70;99.90;;;;;;10279047;28;20434;-83
2022/01/25 17:22:59;;;;;;;186.60;86.30;;;1.60;99.90;;;;;;10285649;28;20031;-81
2022/01/25 17:28:00;;;;;;;222.27;95.70;;;1.60;99.90;;;;;;10279587;28;20031;-83
2022/01/25 17:33:01;;;;;;;255.97;110.80;;;1.70;99.90;;;;;;10280658;28;20734;-83
2022/01/25 17:38:01;;;;;;;296.63;134.00;;;1.70;99.90;;;;;;10280428;28;20034;-81
2022/01/25 17:43:02;;;;;;;232.73;107.10;;;1.70;99.90;;;;;;10281040;28;20391;-81
2022/01/25 17:48:03;;;;;;;261.73;118.17;;;1.70;99.90;;;;;;10286309;28;20035;-85
2022/01/25 17:53:04;;;;;;;183.60;82.47;;;1.70;99.90;;;;;;10293592;28;20066;-84
2022/01/25 17:58:04;;;;;;;188.63;81.07;;;1.70;99.90;;;;;;10274389;28;20122;-82
2022/01/25 18:03:05;;;;;;;212.53;85.20;;;1.70;99.90;;;;;;10276997;28;20062;-82
2022/01/25 18:08:05;;;;;;;180.47;76.43;;;1.70;99.90;;;;;;10290873;28;20479;-84
2022/01/25 18:13:06;;;;;;;187.60;79.93;;;1.70;99.90;;;;;;10289880;28;20022;-82
2022/01/25 18:18:47;;;;;;;189.80;83.20;;;1.70;99.90;;;;;;10289237;28;20118;-82
2022/01/25 18:23:52;;;;;;;232.20;93.77;;;1.70;99.90;;;;;;10267632;28;20568;-82
2022/01/25 18:29:24;;;;;;;224.13;91.50;;;1.70;99.90;;;;;;10289817;28;20031;-82
2022/01/25 18:34:32;;;;;;;202.57;78.90;;;1.70;99.90;;;;;;10287973;28;20527;-82
2022/01/25 18:39:51;;;;;;;188.53;74.90;;;1.70;99.90;;;;;;10288817;28;20121;-82
2022/01/25 18:45:36;;;;;;;257.60;100.70;;;1.70;99.90;;;;;;10285372;28;20169;-82
2022/01/25 18:50:37;;;;;;;213.30;88.37;;;1.70;99.90;;;;;;10013270;29;20052;-82
2022/01/25 18:55:38;;;;;;;250.53;100.43;;;1.70;99.90;;;;;;10158814;29;20059;-83
2022/01/25 19:00:39;;;;;;;251.13;102.70;;;1.70;99.90;;;;;;10183982;29;20122;-82
2022/01/25 19:05:40;;;;;;;610.97;289.67;;;1.70;99.90;;;;;;10191496;29;20543;-85
2022/01/25 19:10:40;;;;;;;403.30;178.53;;;1.70;99.90;;;;;;10200623;29;20076;-85
2022/01/25 19:15:46;;;;;;;283.80;106.07;;;1.70;99.90;;;;;;10192233;29;20083;-85
2022/01/25 19:20:47;;;;;;;;;;;1.70;99.90;;;;;;10236180;28;20050;-85
2022/01/25 19:25:48;;;;;;;254.50;96.77;;;1.60;99.90;;;;;;10271845;28;20402;-88
2022/01/25 19:30:48;;;;;;;195.80;73.33;;;1.60;99.90;;;;;;10287114;28;20105;-84
2022/01/25 19:35:50;;;;;;;256.70;102.77;;;1.60;99.90;;;;;;10270708;28;20035;-86
2022/01/25 19:40:52;;;;;;;191.73;77.73;;;1.70;99.90;;;;;;10253881;28;20066;-84
2022/01/25 19:45:53;;;;;;;169.03;71.03;;;1.70;99.90;;;;;;10287281;28;20577;-87
2022/01/25 19:50:53;;;;;;;169.90;69.07;;;1.70;99.90;;;;;;10270432;28;20085;-86
2022/01/25 19:56:00;;;;;;;150.83;58.70;;;1.70;99.90;;;;;;10251416;28;20722;-86
2022/01/25 20:01:01;;;;;;;155.20;60.10;;;1.70;99.90;;;;;;10248688;28;20035;-87
2022/01/25 20:06:03;;;;;;;197.87;76.57;;;1.70;99.90;;;;;;10257794;28;20022;-86
2022/01/25 20:23:27;;;;;;;173.25;67.88;;;1.70;99.90;;;;;;10286104;28;20042;-85
2022/01/25 20:34:46;;;;;;;211.37;89.17;;;1.60;99.90;;;;;;10278304;28;20054;-84
2022/01/25 20:39:47;;;;;;;222.27;93.35;;;1.60;99.90;;;;;;10264176;28;20096;-87
2022/01/25 20:44:47;;;;;;;170.67;71.13;;;1.60;99.90;;;;;;10268649;28;20093;-86
2022/01/25 20:49:48;;;;;;;151.33;56.00;;;1.60;99.90;;;;;;10285055;28;20038;-84
2022/01/25 20:54:57;;;;;;;184.33;76.00;;;1.60;99.90;;;;;;10279574;28;20043;-84
2022/01/25 20:59:58;;;;;;;192.43;77.97;;;1.60;99.90;;;;;;10263220;28;20136;-86
2022/01/25 21:11:24;;;;;;;176.93;69.10;;;1.60;99.90;;;;;;10286129;28;20050;-84
2022/01/25 21:16:45;;;;;;;134.02;48.78;;;1.70;99.90;;;;;;10268969;28;20133;-84
2022/01/25 21:21:46;;;;;;;145.60;58.30;;;1.60;99.90;;;;;;10257768;28;20387;-89
2022/01/25 21:26:48;;;;;;;146.70;58.97;;;1.60;99.90;;;;;;10275428;28;20031;-84
2022/01/25 21:31:48;;;;;;;158.47;60.70;;;1.60;99.90;;;;;;10275705;28;20442;-84
2022/01/25 21:36:49;;;;;;;153.93;59.33;;;1.60;99.90;;;;;;10291817;28;20034;-85
2022/01/25 21:41:55;;;;;;;128.83;49.03;;;1.60;99.90;;;;;;10274403;28;20033;-85
2022/01/25 21:46:57;;;;;;;135.83;50.97;;;1.60;99.90;;;;;;10275176;28;20085;-84
2022/01/25 21:51:57;;;;;;;159.53;57.53;;;1.60;99.90;;;;;;10273243;28;20278;-84
2022/01/25 21:57:43;;;;;;;135.00;47.73;;;1.60;99.90;;;;;;10291706;28;20053;-84
2022/01/25 22:03:07;;;;;;;193.63;71.53;;;1.60;99.90;;;;;;10271318;28;20047;-84
2022/01/25 22:08:14;;;;;;;129.77;45.47;;;1.60;99.90;;;;;;10274964;28;20038;-84
2022/01/25 22:13:20;;;;;;;107.60;42.03;;;1.60;99.90;;;;;;10280200;28;20038;-84
2022/01/25 22:18:22;;;;;;;101.77;36.43;;;1.60;99.90;;;;;;10249202;28;20118;-84
2022/01/25 22:23:25;;;;;;;93.37;35.60;;;1.60;99.90;;;;;;10240402;28;20364;-84
2022/01/25 22:28:26;;;;;;;103.70;40.70;;;1.60;99.90;;;;;;10269602;28;20114;-84
2022/01/25 22:33:27;;;;;;;87.30;35.13;;;1.60;99.90;;;;;;10286266;28;20387;-85
2022/01/25 22:38:28;;;;;;;103.77;39.23;;;1.60;99.90;;;;;;10290794;28;20031;-85
2022/01/25 22:43:33;;;;;;;115.17;43.27;;;1.60;99.90;;;;;;10273746;28;20019;-84
2022/01/25 22:48:52;;;;;;;99.03;34.47;;;1.60;99.90;;;;;;10261851;28;20069;-84
2022/01/25 22:53:53;;;;;;;103.27;38.17;;;1.60;99.90;;;;;;10283601;28;20167;-89
2022/01/25 22:58:54;;;;;;;129.67;48.03;;;1.60;99.90;;;;;;10272065;28;20056;-85
2022/01/25 23:03:54;;;;;;;113.23;41.93;;;1.50;99.90;;;;;;10289209;28;20045;-84
2022/01/25 23:08:55;;;;;;;130.33;43.40;;;1.60;99.90;;;;;;10290088;28;20042;-85
2022/01/25 23:19:03;;;;;;;121.70;44.60;;;1.50;99.90;;;;;;10289184;28;20049;-84
2022/01/25 23:24:05;;;;;;;111.77;42.17;;;1.60;99.90;;;;;;10288374;28;20403;-87
2022/01/25 23:29:09;;;;;;;116.53;46.47;;;1.50;99.90;;;;;;10271034;28;20391;-84
2022/01/25 23:34:30;;;;;;;92.43;35.93;;;1.50;99.90;;;;;;10287701;28;20049;-86
2022/01/25 23:39:36;;;;;;;120.87;43.57;;;1.50;99.90;;;;;;10289088;28;20026;-83
2022/01/25 23:44:43;;;;;;;112.57;41.03;;;1.50;99.90;;;;;;10287816;28;20038;-84
2022/01/25 23:49:48;;;;;;;108.30;39.23;;;1.50;99.90;;;;;;10288108;28;20121;-87
